Eureka, CA

10:10 PM PDT die 22o October, anno 2014 (GMT -0700)
Henderson Center | Change Station
CLOSE
Current Station
Personal Weather Stations
Location: Eureka, CA
Elevation: 125 ft
Nearby Weather Stations

Elev 125 ft 40.78 °N, 124.17 °W | Updated 7 seconds ago

Pluvia
Pluvia
60.4 °F
Feels Like 60.4 °F
N
8.3
Ventus Variabilis Ventus from Magis Eurus quam Auster
Gusts 8.3 mph

Hodie
High -- | Low -- °F
--% Chance of Precip.
Yesterday
High -- | Low -- °F
Precip. -- in
7:35 AM 6:25 PM
Waning Crescent, 1% visible
Pressio 29.94 in
Visibilitas 10.0 milia passuum
Clouds Aequaliter Nubila 9500 ft
Frigus in quo Ros apparet 59 °F
Umor 94%
Rainfall 0.08 in
Snow Depth Not available.
UV 0 out of 12
Pollen 3.90 out of 12
Air Quality Not available.
Flu Activity Sporadic
METAR KACV 230453Z AUTO 13014G22KT 10SM -RA OVC095 16/14 A2992 RMK AO2 SLP136 P0015 T01560139

More Conditions Fewer Conditions

Pressio 29.94 in
Visibilitas 10.0 milia passuum
Clouds Aequaliter Nubila 9500 ft
Frigus in quo Ros apparet 59 °F
Umor 94%
Rainfall 0.08 in
Snow Depth Not available.
UV 0 out of 12
Pollen 3.90 out of 12
Air Quality Not available.
Flu Activity Sporadic
METAR KACV 230453Z AUTO 13014G22KT 10SM -RA OVC095 16/14 A2992 RMK AO2 SLP136 P0015 T01560139

More Conditions Fewer Conditions

10-Day Weather Forecast

Almanac

Astronomy

Oct. 22, 2014 Rise Set
Actual Time 7:35 AM PDT 6:25 PM PDT
Civil Twilight 7:07 AM PDT 6:53 PM PDT
Nautical Twilight 6:35 AM PDT 7:25 PM PDT
Astronomical Twilight 6:04 AM PDT 7:57 PM PDT
Moon 6:22 AM PDT (10/22) 5:55 PM PDT (10/22)
Length Of Visible Light 11h 45m
Length of Day
10h 50m
Tomorrow will be 2m 32s shorter.
Waning Crescent, 1% of the Moon is Illuminated
Oct 23
Waning Crescent
Oct 23
New
Oct 30
First Quarter
Nov 6
Full
Nov 14
Last Quarter

Yesterday's Extremes

State Highs State Lows

Community

WunderPhotos

Upload Photos

1,764,170 photos uploaded!

Nearby

Snow Depth

Station Depth Elevation
Adin Mountain 0 in 6200 ft
Crowder Flat 0 in 5100 ft
Independence Lake 0 in 8450 ft
Independence Camp 0 in 7000 ft
Ward Creek #3 0 in 6750 ft

Earthquake Activity

City Distance Mag. Time & Date
Crescent City, California 74 milia passuum 2.6 1:22 AM PDT
2014-10-21
Minimum magnitude displayed is 2.5.

Coastal Water Temperatures

Locus Calor
North Spit, CA 60.1 °F
Crescent City, CA 60.1 °F

Nearby Weather Stations